Time;durP1;ratioP1;P1;durP2;ratioP2;P2;SDS_P1;SDS_P2;PMS_P1;PMS_P2;Temp;Humidity;BMP_temperature;BMP_pressure;BME280_temperature;BME280_humidity;BME280_pressure;Samples;Min_cycle;Max_cycle;Signal;HPM_P1;HPM_P2
2023/04/03 00:01:01;;;;;;;0.27;0.27;;;;;;;;;;5103748;27;20436;-68
2023/04/03 00:03:28;;;;;;;0.30;0.30;;;;;;;;;;5106995;27;20425;-67
2023/04/03 00:05:56;;;;;;;0.50;0.50;;;;;;;;;;5102358;27;20425;-68
2023/04/03 00:08:23;;;;;;;0.30;0.30;;;;;;;;;;5104719;27;21242;-67
2023/04/03 00:10:50;;;;;;;0.30;0.30;;;;;;;;;;5103648;27;20425;-67
2023/04/03 00:13:17;;;;;;;0.32;0.32;;;;;;;;;;5114903;27;20465;-68
2023/04/03 00:15:45;;;;;;;0.40;0.40;;;;;;;;;;5109933;27;20425;-68
2023/04/03 00:18:12;;;;;;;0.30;0.30;;;;;;;;;;5094026;27;20494;-67
2023/04/03 00:20:40;;;;;;;0.45;0.45;;;;;;;;;;5110813;27;20420;-68
2023/04/03 00:23:07;;;;;;;0.40;0.40;;;;;;;;;;5100523;28;20432;-68
2023/04/03 00:25:34;;;;;;;0.70;0.60;;;;;;;;;;5096777;27;20457;-67
2023/04/03 00:28:01;;;;;;;0.50;0.50;;;;;;;;;;5092431;27;20429;-68
2023/04/03 00:30:29;;;;;;;2.10;0.60;;;;;;;;;;5108712;27;20429;-68
2023/04/03 00:33:00;;;;;;;0.30;0.30;;;;;;;;;;5110007;27;20429;-68
2023/04/03 00:35:27;;;;;;;0.40;0.40;;;;;;;;;;5112859;27;20917;-68
2023/04/03 00:37:55;;;;;;;0.20;0.20;;;;;;;;;;5097995;28;20437;-68
2023/04/03 00:40:24;;;;;;;0.60;0.50;;;;;;;;;;5093509;27;20425;-70
2023/04/03 00:42:59;;;;;;;0.20;0.20;;;;;;;;;;5107448;27;21028;-67
2023/04/03 00:45:26;;;;;;;0.40;0.40;;;;;;;;;;5098491;27;20422;-68
2023/04/03 00:47:53;;;;;;;0.40;0.40;;;;;;;;;;5094874;27;20592;-68
2023/04/03 00:50:21;;;;;;;0.47;0.47;;;;;;;;;;5098273;27;20433;-68
2023/04/03 00:52:48;;;;;;;1.00;0.60;;;;;;;;;;5102616;27;20418;-68
2023/04/03 00:55:18;;;;;;;0.40;0.40;;;;;;;;;;5109332;27;20424;-66
2023/04/03 00:57:46;;;;;;;0.30;0.30;;;;;;;;;;5110015;27;20433;-67
2023/04/03 01:00:15;;;;;;;0.40;0.40;;;;;;;;;;5094770;27;21167;-67
2023/04/03 01:02:44;;;;;;;0.20;0.20;;;;;;;;;;5114451;27;20922;-67
2023/04/03 01:05:12;;;;;;;0.50;0.50;;;;;;;;;;5092371;27;20507;-67
2023/04/03 01:07:42;;;;;;;0.80;0.75;;;;;;;;;;5118664;27;20506;-67
2023/04/03 01:10:13;;;;;;;0.30;0.30;;;;;;;;;;5096288;27;20877;-67
2023/04/03 01:12:44;;;;;;;0.28;0.28;;;;;;;;;;5109704;27;20787;-67
2023/04/03 01:15:15;;;;;;;0.47;0.47;;;;;;;;;;5102887;27;20429;-67
2023/04/03 01:17:45;;;;;;;1.73;0.38;;;;;;;;;;5105774;27;20433;-67
2023/04/03 01:20:12;;;;;;;0.60;0.60;;;;;;;;;;5101253;27;20425;-67
2023/04/03 01:22:59;;;;;;;0.50;0.43;;;;;;;;;;5106037;27;20468;-68
2023/04/03 01:25:27;;;;;;;0.60;0.60;;;;;;;;;;5099987;27;20960;-68
2023/04/03 01:27:54;;;;;;;0.30;0.30;;;;;;;;;;5106072;27;20915;-68
2023/04/03 01:30:24;;;;;;;0.70;0.70;;;;;;;;;;5098975;27;20463;-68
2023/04/03 01:32:51;;;;;;;0.40;0.40;;;;;;;;;;5102094;27;20427;-68
2023/04/03 01:35:19;;;;;;;0.30;0.30;;;;;;;;;;5109257;27;20434;-67
2023/04/03 01:37:46;;;;;;;0.57;0.57;;;;;;;;;;5105872;28;20770;-68
2023/04/03 01:40:13;;;;;;;0.70;0.70;;;;;;;;;;5103783;27;20457;-68
2023/04/03 01:42:40;;;;;;;0.40;0.40;;;;;;;;;;5105009;27;20423;-68
2023/04/03 01:45:07;;;;;;;0.45;0.45;;;;;;;;;;5110151;27;20420;-67
2023/04/03 01:47:35;;;;;;;0.50;0.38;;;;;;;;;;5090622;27;20433;-68
2023/04/03 01:50:02;;;;;;;0.60;0.40;;;;;;;;;;5093513;28;20442;-67
2023/04/03 01:52:30;;;;;;;0.30;0.30;;;;;;;;;;5110037;27;20796;-67
2023/04/03 01:54:57;;;;;;;0.40;0.40;;;;;;;;;;5100095;28;20910;-68
2023/04/03 01:57:27;;;;;;;0.57;0.57;;;;;;;;;;5099195;27;20485;-68
2023/04/03 01:59:54;;;;;;;0.30;0.30;;;;;;;;;;5102796;27;20430;-68
2023/04/03 02:02:21;;;;;;;0.60;0.60;;;;;;;;;;5099099;27;20435;-68
2023/04/03 02:04:48;;;;;;;1.40;0.80;;;;;;;;;;5114390;27;20524;-68
2023/04/03 02:07:15;;;;;;;0.65;0.65;;;;;;;;;;5113613;27;20424;-68
2023/04/03 02:09:45;;;;;;;1.90;0.60;;;;;;;;;;5097717;27;20464;-68
2023/04/03 02:12:12;;;;;;;0.70;0.50;;;;;;;;;;5094199;27;20425;-68
2023/04/03 02:14:40;;;;;;;1.20;1.10;;;;;;;;;;5097340;27;20422;-68
2023/04/03 02:17:09;;;;;;;0.52;0.52;;;;;;;;;;5103547;27;20450;-67
2023/04/03 02:19:37;;;;;;;0.57;0.57;;;;;;;;;;5106090;27;20422;-68
2023/04/03 02:22:04;;;;;;;1.00;1.00;;;;;;;;;;5096144;27;20478;-68
2023/04/03 02:24:32;;;;;;;2.90;1.30;;;;;;;;;;5111799;27;20449;-68
2023/04/03 02:26:59;;;;;;;0.90;0.90;;;;;;;;;;5119845;27;20422;-67
2023/04/03 02:29:26;;;;;;;0.73;0.73;;;;;;;;;;5106809;27;20466;-68
2023/04/03 02:31:53;;;;;;;0.50;0.50;;;;;;;;;;5105899;27;20645;-67
2023/04/03 02:34:21;;;;;;;1.20;1.10;;;;;;;;;;5098920;27;20492;-68
2023/04/03 02:36:48;;;;;;;0.47;0.47;;;;;;;;;;5089913;27;20432;-67
2023/04/03 02:39:15;;;;;;;1.90;0.60;;;;;;;;;;5089620;28;20418;-67
2023/04/03 02:41:42;;;;;;;0.70;0.70;;;;;;;;;;5101526;28;20420;-68
2023/04/03 02:44:12;;;;;;;1.10;0.85;;;;;;;;;;5098484;28;20428;-67
2023/04/03 02:46:39;;;;;;;0.75;0.57;;;;;;;;;;5106479;27;20436;-67
2023/04/03 02:49:07;;;;;;;0.80;0.68;;;;;;;;;;5105078;27;20826;-67
2023/04/03 02:51:34;;;;;;;0.50;0.50;;;;;;;;;;5096629;27;20471;-67
2023/04/03 02:54:01;;;;;;;4.00;0.60;;;;;;;;;;5112665;27;20426;-67
2023/04/03 02:56:28;;;;;;;1.30;0.90;;;;;;;;;;5093626;27;20444;-67
2023/04/03 02:58:55;;;;;;;0.90;0.63;;;;;;;;;;5100251;28;20434;-67
2023/04/03 03:01:28;;;;;;;0.77;0.77;;;;;;;;;;5106529;27;20430;-67
2023/04/03 03:03:55;;;;;;;0.30;0.30;;;;;;;;;;5087685;28;20486;-67
2023/04/03 03:06:22;;;;;;;0.75;0.75;;;;;;;;;;5099674;27;20512;-67
2023/04/03 03:08:52;;;;;;;0.30;0.30;;;;;;;;;;5089330;28;20425;-67
2023/04/03 03:11:20;;;;;;;0.30;0.13;;;;;;;;;;5104923;27;20425;-67
2023/04/03 03:13:47;;;;;;;0.32;0.32;;;;;;;;;;5104025;27;20449;-67
2023/04/03 03:16:17;;;;;;;0.15;0.15;;;;;;;;;;5100272;27;20431;-67
2023/04/03 03:18:48;;;;;;;0.20;0.20;;;;;;;;;;5103716;27;20422;-67
2023/04/03 03:21:15;;;;;;;0.30;0.30;;;;;;;;;;5094291;27;20539;-67
2023/04/03 03:23:42;;;;;;;0.20;0.20;;;;;;;;;;5100269;27;20418;-67
2023/04/03 03:26:11;;;;;;;0.30;0.30;;;;;;;;;;5097022;27;20928;-67
2023/04/03 03:28:38;;;;;;;0.50;0.50;;;;;;;;;;5095941;27;21092;-68
2023/04/03 03:31:06;;;;;;;1.10;0.40;;;;;;;;;;5093067;27;20436;-68
2023/04/03 03:33:33;;;;;;;0.20;0.20;;;;;;;;;;5102649;27;20426;-68
2023/04/03 03:36:00;;;;;;;0.30;0.30;;;;;;;;;;5113252;27;20919;-68
2023/04/03 03:38:27;;;;;;;0.50;0.50;;;;;;;;;;5112848;27;20425;-68
2023/04/03 03:40:54;;;;;;;0.40;0.40;;;;;;;;;;5107222;27;20424;-68
2023/04/03 03:43:22;;;;;;;0.77;0.43;;;;;;;;;;5101332;28;20519;-68
2023/04/03 03:45:52;;;;;;;0.40;0.40;;;;;;;;;;5101985;27;20799;-68
2023/04/03 03:48:20;;;;;;;0.50;0.50;;;;;;;;;;5106715;27;20432;-68
2023/04/03 03:50:47;;;;;;;0.40;0.40;;;;;;;;;;5095273;28;20432;-68
2023/04/03 03:53:17;;;;;;;0.40;0.40;;;;;;;;;;5095071;27;20426;-68
2023/04/03 03:55:45;;;;;;;0.63;0.63;;;;;;;;;;5099316;28;20806;-68
2023/04/03 03:58:12;;;;;;;0.10;0.10;;;;;;;;;;5109623;28;20449;-68
2023/04/03 04:00:41;;;;;;;0.20;0.20;;;;;;;;;;5103254;28;20924;-68
2023/04/03 04:03:08;;;;;;;0.30;0.30;;;;;;;;;;5100206;28;20480;-68
2023/04/03 04:05:35;;;;;;;1.10;0.50;;;;;;;;;;5090330;28;20456;-68
2023/04/03 04:08:03;;;;;;;0.30;0.30;;;;;;;;;;5099285;28;20529;-67
2023/04/03 04:10:30;;;;;;;0.20;0.20;;;;;;;;;;5111056;28;20430;-68
2023/04/03 04:12:57;;;;;;;0.20;0.20;;;;;;;;;;5089583;28;20429;-68
2023/04/03 04:15:25;;;;;;;0.50;0.40;;;;;;;;;;5107599;28;20426;-68
2023/04/03 04:17:58;;;;;;;0.20;0.20;;;;;;;;;;5102384;28;20436;-68
2023/04/03 04:20:25;;;;;;;0.32;0.30;;;;;;;;;;5108958;28;20431;-68
2023/04/03 04:22:53;;;;;;;0.50;0.50;;;;;;;;;;5106504;28;20471;-68
2023/04/03 04:25:20;;;;;;;0.30;0.30;;;;;;;;;;5106862;28;20829;-68
2023/04/03 04:27:47;;;;;;;0.47;0.47;;;;;;;;;;5103251;28;20963;-68
2023/04/03 04:30:14;;;;;;;0.50;0.50;;;;;;;;;;5106810;28;20886;-68
2023/04/03 04:32:41;;;;;;;0.40;0.40;;;;;;;;;;5103569;28;20906;-68
2023/04/03 04:35:11;;;;;;;0.50;0.50;;;;;;;;;;5096103;28;20427;-68
2023/04/03 04:37:41;;;;;;;0.45;0.30;;;;;;;;;;5087670;28;20517;-67
2023/04/03 04:40:08;;;;;;;0.40;0.40;;;;;;;;;;5096971;28;20421;-68
2023/04/03 04:42:35;;;;;;;0.25;0.25;;;;;;;;;;5106557;28;20507;-67
2023/04/03 04:45:07;;;;;;;0.85;0.35;;;;;;;;;;5096584;28;20430;-67
2023/04/03 04:47:34;;;;;;;0.40;0.40;;;;;;;;;;5101863;27;21047;-68
2023/04/03 04:50:01;;;;;;;0.22;0.22;;;;;;;;;;5114287;27;20420;-68
2023/04/03 04:52:30;;;;;;;0.40;0.40;;;;;;;;;;5115456;27;20427;-68
2023/04/03 04:54:57;;;;;;;0.38;0.38;;;;;;;;;;5100447;27;20480;-67
2023/04/03 04:57:24;;;;;;;0.30;0.30;;;;;;;;;;5101495;27;20937;-68
2023/04/03 04:59:52;;;;;;;0.30;0.30;;;;;;;;;;5089967;28;20500;-68
2023/04/03 05:02:19;;;;;;;0.60;0.50;;;;;;;;;;5090992;28;20983;-68
2023/04/03 05:04:46;;;;;;;0.43;0.43;;;;;;;;;;5099526;28;20933;-68
2023/04/03 05:07:16;;;;;;;0.20;0.20;;;;;;;;;;5100225;27;20457;-68
2023/04/03 05:09:43;;;;;;;0.17;0.17;;;;;;;;;;5101491;27;20762;-68
2023/04/03 05:12:10;;;;;;;0.30;0.30;;;;;;;;;;5112744;27;20429;-68
2023/04/03 05:14:38;;;;;;;0.30;0.30;;;;;;;;;;5098038;27;20430;-68
2023/04/03 05:17:05;;;;;;;0.30;0.30;;;;;;;;;;5096665;28;21169;-69
2023/04/03 05:19:32;;;;;;;0.20;0.20;;;;;;;;;;5103899;27;20422;-69
2023/04/03 05:21:59;;;;;;;0.65;0.25;;;;;;;;;;5097347;27;20429;-69
2023/04/03 05:24:26;;;;;;;0.20;0.20;;;;;;;;;;5088702;27;20430;-69
2023/04/03 05:26:53;;;;;;;0.40;0.40;;;;;;;;;;5095863;27;20427;-69
2023/04/03 05:29:21;;;;;;;0.40;0.40;;;;;;;;;;5091575;28;20421;-69
2023/04/03 05:31:50;;;;;;;0.85;0.45;;;;;;;;;;5096659;28;20428;-69
2023/04/03 05:34:17;;;;;;;0.40;0.40;;;;;;;;;;5094992;28;20541;-68
2023/04/03 05:36:44;;;;;;;0.30;0.30;;;;;;;;;;5089734;28;20434;-68
2023/04/03 05:39:12;;;;;;;0.40;0.40;;;;;;;;;;5098175;27;20916;-68
2023/04/03 05:41:39;;;;;;;0.25;0.25;;;;;;;;;;5091343;28;20436;-70
2023/04/03 05:44:06;;;;;;;0.50;0.50;;;;;;;;;;5090538;28;20671;-69
2023/04/03 05:46:33;;;;;;;0.40;0.40;;;;;;;;;;5097481;27;20523;-68
2023/04/03 05:49:01;;;;;;;2.10;0.43;;;;;;;;;;5092937;28;20548;-68
2023/04/03 05:51:32;;;;;;;0.25;0.25;;;;;;;;;;5112440;27;20430;-68
2023/04/03 05:54:10;;;;;;;0.60;0.30;;;;;;;;;;5092599;27;20551;-68
2023/04/03 05:56:37;;;;;;;0.20;0.20;;;;;;;;;;5099759;28;20914;-68
2023/04/03 05:59:05;;;;;;;0.40;0.40;;;;;;;;;;5092659;28;20455;-68
2023/04/03 06:01:32;;;;;;;0.98;0.98;;;;;;;;;;5095903;27;20852;-68
2023/04/03 06:03:59;;;;;;;0.40;0.40;;;;;;;;;;5103791;27;20423;-70
2023/04/03 06:06:26;;;;;;;0.70;0.60;;;;;;;;;;5100806;27;20428;-69
2023/04/03 06:08:54;;;;;;;0.53;0.53;;;;;;;;;;5103207;28;20475;-68
2023/04/03 06:11:22;;;;;;;0.50;0.50;;;;;;;;;;5103376;27;20421;-68
2023/04/03 06:13:49;;;;;;;0.80;0.30;;;;;;;;;;5104203;27;20924;-68
2023/04/03 06:16:17;;;;;;;0.38;0.38;;;;;;;;;;5096349;27;20816;-68
2023/04/03 06:18:48;;;;;;;0.50;0.50;;;;;;;;;;5106392;27;20917;-68
2023/04/03 06:21:15;;;;;;;0.32;0.32;;;;;;;;;;5107913;27;20424;-68
2023/04/03 06:23:42;;;;;;;0.40;0.40;;;;;;;;;;5110302;27;20900;-68
2023/04/03 06:26:10;;;;;;;0.47;0.47;;;;;;;;;;5092928;28;20519;-68
2023/04/03 06:28:37;;;;;;;0.20;0.20;;;;;;;;;;5107293;27;20428;-68
2023/04/03 06:31:07;;;;;;;0.40;0.40;;;;;;;;;;5097082;27;22861;-68
2023/04/03 06:33:37;;;;;;;0.43;0.43;;;;;;;;;;5093515;28;20521;-68
2023/04/03 06:36:05;;;;;;;0.30;0.30;;;;;;;;;;5095900;28;20445;-68
2023/04/03 06:38:33;;;;;;;0.60;0.45;;;;;;;;;;5095486;28;20974;-69
2023/04/03 06:41:00;;;;;;;0.30;0.30;;;;;;;;;;5103163;27;20939;-73
2023/04/03 06:43:33;;;;;;;0.50;0.50;;;;;;;;;;5107191;27;20430;-68
2023/04/03 06:46:01;;;;;;;1.70;0.60;;;;;;;;;;5096431;28;20937;-67
2023/04/03 06:48:29;;;;;;;0.40;0.40;;;;;;;;;;5096180;28;20467;-68
2023/04/03 06:50:56;;;;;;;0.40;0.40;;;;;;;;;;5095716;27;20898;-68
2023/04/03 06:53:24;;;;;;;0.40;0.40;;;;;;;;;;5096642;27;20453;-68
2023/04/03 06:55:52;;;;;;;1.90;0.47;;;;;;;;;;5098042;27;20904;-68
2023/04/03 06:58:22;;;;;;;5.00;0.50;;;;;;;;;;5107612;27;21126;-68
2023/04/03 07:00:52;;;;;;;0.50;0.50;;;;;;;;;;5102815;27;20436;-68
2023/04/03 07:03:19;;;;;;;3.70;0.98;;;;;;;;;;5095287;28;20490;-68
2023/04/03 07:05:46;;;;;;;0.70;0.50;;;;;;;;;;5094413;28;20468;-68
2023/04/03 07:08:13;;;;;;;0.30;0.30;;;;;;;;;;5086884;27;20420;-68
2023/04/03 07:10:43;;;;;;;0.40;0.40;;;;;;;;;;5090458;28;20422;-67
2023/04/03 07:13:10;;;;;;;0.47;0.47;;;;;;;;;;5087343;27;20489;-68
2023/04/03 07:15:40;;;;;;;0.30;0.30;;;;;;;;;;5086810;28;20439;-68
2023/04/03 07:18:07;;;;;;;0.60;0.60;;;;;;;;;;5104005;27;20458;-67
2023/04/03 07:20:35;;;;;;;0.57;0.57;;;;;;;;;;5100190;27;20445;-68
2023/04/03 07:23:02;;;;;;;0.60;0.60;;;;;;;;;;5097385;27;20424;-68
2023/04/03 07:25:31;;;;;;;0.90;0.60;;;;;;;;;;5097064;28;20420;-68
2023/04/03 07:27:58;;;;;;;1.10;0.70;;;;;;;;;;5091378;28;20422;-68
2023/04/03 07:30:28;;;;;;;0.40;0.40;;;;;;;;;;5097251;27;20453;-68
2023/04/03 07:33:01;;;;;;;2.90;1.00;;;;;;;;;;5087396;28;20429;-68
2023/04/03 07:35:29;;;;;;;0.30;0.30;;;;;;;;;;5094665;27;20467;-68
2023/04/03 07:37:56;;;;;;;0.50;0.50;;;;;;;;;;5091984;28;20430;-68
2023/04/03 07:40:23;;;;;;;0.38;0.38;;;;;;;;;;5095598;28;20481;-68
2023/04/03 07:42:54;;;;;;;0.40;0.40;;;;;;;;;;5095384;28;20428;-67
2023/04/03 07:45:25;;;;;;;0.50;0.50;;;;;;;;;;5096431;28;20423;-68
2023/04/03 07:47:52;;;;;;;3.55;0.73;;;;;;;;;;5091192;27;20479;-68
2023/04/03 07:50:19;;;;;;;0.57;0.57;;;;;;;;;;5093637;28;20504;-67
2023/04/03 07:52:46;;;;;;;0.40;0.40;;;;;;;;;;5102429;28;20432;-68
2023/04/03 07:55:17;;;;;;;0.28;0.28;;;;;;;;;;5097386;28;20454;-68
2023/04/03 07:57:44;;;;;;;0.40;0.40;;;;;;;;;;5091394;28;20467;-68
2023/04/03 08:00:12;;;;;;;0.30;0.30;;;;;;;;;;5095547;28;21034;-68
2023/04/03 08:02:39;;;;;;;0.52;0.52;;;;;;;;;;5093337;28;20434;-67
2023/04/03 08:05:06;;;;;;;0.75;0.70;;;;;;;;;;5088833;28;20700;-68
2023/04/03 08:07:33;;;;;;;0.60;0.60;;;;;;;;;;5093752;28;20484;-67
2023/04/03 08:10:00;;;;;;;0.70;0.60;;;;;;;;;;5095734;28;20420;-67
2023/04/03 08:12:29;;;;;;;0.40;0.40;;;;;;;;;;5094086;28;20441;-67
2023/04/03 08:14:56;;;;;;;0.38;0.38;;;;;;;;;;5091933;28;20452;-68
2023/04/03 08:17:23;;;;;;;1.40;0.50;;;;;;;;;;5092974;28;20434;-67
2023/04/03 08:19:51;;;;;;;0.30;0.30;;;;;;;;;;5091736;28;20796;-67
2023/04/03 08:22:18;;;;;;;0.60;0.40;;;;;;;;;;5100586;27;20447;-68
2023/04/03 08:24:45;;;;;;;0.60;0.60;;;;;;;;;;5096901;27;20507;-68
2023/04/03 08:27:26;;;;;;;0.40;0.40;;;;;;;;;;5098298;27;20439;-68
2023/04/03 08:29:53;;;;;;;0.43;0.43;;;;;;;;;;5096220;27;20424;-68
2023/04/03 08:32:20;;;;;;;0.40;0.40;;;;;;;;;;5092997;28;20425;-68
2023/04/03 08:34:47;;;;;;;1.13;0.40;;;;;;;;;;5092961;28;21091;-68
2023/04/03 08:37:16;;;;;;;0.40;0.40;;;;;;;;;;5100774;28;20432;-68
2023/04/03 08:39:47;;;;;;;0.40;0.40;;;;;;;;;;5108713;27;20468;-68
2023/04/03 08:42:35;;;;;;;1.70;0.60;;;;;;;;;;5097885;27;20583;-68
2023/04/03 08:45:11;;;;;;;0.40;0.40;;;;;;;;;;5098384;27;20474;-69
2023/04/03 08:47:40;;;;;;;0.40;0.40;;;;;;;;;;5108850;27;20777;-68
2023/04/03 08:50:11;;;;;;;0.68;0.60;;;;;;;;;;5093027;28;20430;-68
2023/04/03 08:52:45;;;;;;;0.50;0.50;;;;;;;;;;5104292;27;20430;-68
2023/04/03 08:55:26;;;;;;;0.63;0.63;;;;;;;;;;5113896;27;20422;-68
2023/04/03 08:58:07;;;;;;;0.40;0.35;;;;;;;;;;5106623;27;20458;-69
2023/04/03 09:00:41;;;;;;;0.70;0.30;;;;;;;;;;5107413;27;20458;-68
2023/04/03 09:03:12;;;;;;;1.50;0.50;;;;;;;;;;5095256;27;20443;-68
2023/04/03 09:05:46;;;;;;;0.50;0.50;;;;;;;;;;5094757;27;20911;-68
2023/04/03 09:08:13;;;;;;;0.40;0.40;;;;;;;;;;5091679;28;20434;-68
2023/04/03 09:10:41;;;;;;;0.60;0.60;;;;;;;;;;5099368;27;20419;-68
2023/04/03 09:13:21;;;;;;;0.30;0.30;;;;;;;;;;5109960;27;20427;-68
2023/04/03 09:15:48;;;;;;;1.77;0.63;;;;;;;;;;5101083;27;20500;-68
2023/04/03 09:18:17;;;;;;;0.38;0.38;;;;;;;;;;5100556;27;20440;-68
2023/04/03 09:20:54;;;;;;;0.20;0.20;;;;;;;;;;5100617;27;20835;-68
2023/04/03 09:23:25;;;;;;;0.40;0.40;;;;;;;;;;5098488;28;20461;-68
2023/04/03 09:25:58;;;;;;;0.70;0.40;;;;;;;;;;5099835;27;20418;-67
2023/04/03 09:28:25;;;;;;;0.60;0.60;;;;;;;;;;5098286;27;20435;-68
2023/04/03 09:30:55;;;;;;;0.32;0.32;;;;;;;;;;5092333;28;20432;-68
2023/04/03 09:33:23;;;;;;;1.63;0.47;;;;;;;;;;5089816;27;20430;-68
2023/04/03 09:35:50;;;;;;;0.20;0.20;;;;;;;;;;5091559;27;20422;-68
2023/04/03 09:38:20;;;;;;;3.00;0.67;;;;;;;;;;5101438;27;20513;-68
2023/04/03 09:40:51;;;;;;;0.32;0.32;;;;;;;;;;5108162;27;20434;-69
2023/04/03 09:43:24;;;;;;;0.70;0.40;;;;;;;;;;5105267;27;20848;-69
2023/04/03 09:45:54;;;;;;;0.20;0.20;;;;;;;;;;5096998;28;20426;-69
2023/04/03 09:48:28;;;;;;;0.60;0.60;;;;;;;;;;5111498;27;20426;-69
2023/04/03 09:50:58;;;;;;;0.47;0.47;;;;;;;;;;5100455;27;20424;-68
2023/04/03 09:53:41;;;;;;;0.25;0.25;;;;;;;;;;5094585;27;20502;-68
2023/04/03 09:56:20;;;;;;;2.55;0.43;;;;;;;;;;5099889;27;20479;-68
2023/04/03 09:58:51;;;;;;;0.45;0.30;;;;;;;;;;5098684;28;20884;-69
2023/04/03 10:01:29;;;;;;;0.50;0.50;;;;;;;;;;5098219;27;20448;-69
2023/04/03 10:04:26;;;;;;;0.30;0.30;;;;;;;;;;5101780;27;20422;-69
2023/04/03 10:06:54;;;;;;;0.50;0.50;;;;;;;;;;5091369;27;20744;-69
2023/04/03 10:09:29;;;;;;;0.30;0.30;;;;;;;;;;5095103;27;20428;-69
2023/04/03 10:12:01;;;;;;;3.00;0.52;;;;;;;;;;5096604;28;20439;-68
2023/04/03 10:14:29;;;;;;;0.20;0.20;;;;;;;;;;5101259;27;20890;-68
2023/04/03 10:16:58;;;;;;;0.73;0.43;;;;;;;;;;5090567;27;20447;-69
2023/04/03 10:19:39;;;;;;;1.30;0.47;;;;;;;;;;5099457;28;20430;-68
2023/04/03 10:22:24;;;;;;;0.60;0.50;;;;;;;;;;5103079;27;20434;-69
2023/04/03 10:24:58;;;;;;;0.30;0.30;;;;;;;;;;5097954;27;20427;-69
2023/04/03 10:27:41;;;;;;;0.60;0.60;;;;;;;;;;5104583;27;20962;-68
2023/04/03 10:30:10;;;;;;;0.25;0.25;;;;;;;;;;5098325;28;20514;-69
2023/04/03 10:32:56;;;;;;;0.40;0.40;;;;;;;;;;5095488;27;20429;-69
2023/04/03 10:35:36;;;;;;;0.40;0.40;;;;;;;;;;5095720;27;20425;-69
2023/04/03 10:38:15;;;;;;;0.70;0.43;;;;;;;;;;5102675;27;20439;-68
2023/04/03 10:40:55;;;;;;;0.30;0.30;;;;;;;;;;5097890;27;20435;-68
2023/04/03 10:43:42;;;;;;;0.90;0.90;;;;;;;;;;5117299;27;20733;-68
2023/04/03 10:46:16;;;;;;;0.68;0.50;;;;;;;;;;5110363;27;20439;-68
2023/04/03 10:48:43;;;;;;;0.50;0.50;;;;;;;;;;5098072;28;20454;-69
2023/04/03 10:51:26;;;;;;;0.47;0.47;;;;;;;;;;5088209;28;20913;-69
2023/04/03 10:53:53;;;;;;;0.63;0.63;;;;;;;;;;5090115;27;22693;-69
2023/04/03 10:56:27;;;;;;;0.40;0.40;;;;;;;;;;5089624;28;20804;-68
2023/04/03 10:58:59;;;;;;;0.35;0.35;;;;;;;;;;5101710;27;20435;-68
2023/04/03 11:01:36;;;;;;;0.60;0.40;;;;;;;;;;5090296;28;20471;-69
2023/04/03 11:04:05;;;;;;;0.50;0.50;;;;;;;;;;5088126;28;20430;-68
2023/04/03 11:06:41;;;;;;;0.30;0.30;;;;;;;;;;5095653;28;20422;-68
2023/04/03 11:09:20;;;;;;;1.60;0.50;;;;;;;;;;5088843;28;20429;-68
2023/04/03 11:11:47;;;;;;;0.53;0.53;;;;;;;;;;5092442;28;20422;-68
2023/04/03 11:14:16;;;;;;;0.43;0.43;;;;;;;;;;5089633;28;21020;-71
2023/04/03 11:16:48;;;;;;;0.57;0.57;;;;;;;;;;5098707;28;20524;-68
2023/04/03 11:19:24;;;;;;;0.77;0.77;;;;;;;;;;5091213;28;20797;-68
2023/04/03 11:22:01;;;;;;;0.30;0.30;;;;;;;;;;5098209;28;20431;-68
2023/04/03 11:24:30;;;;;;;0.45;0.45;;;;;;;;;;5099050;27;20433;-69
2023/04/03 11:26:59;;;;;;;0.40;0.40;;;;;;;;;;5099066;27;20495;-69
2023/04/03 11:29:30;;;;;;;0.20;0.20;;;;;;;;;;5094038;27;20535;-68
2023/04/03 11:32:08;;;;;;;1.00;0.50;;;;;;;;;;5096283;27;20440;-68
2023/04/03 11:34:40;;;;;;;1.20;0.60;;;;;;;;;;5096445;28;20426;-69
2023/04/03 11:37:26;;;;;;;0.38;0.38;;;;;;;;;;5093542;27;20856;-69
2023/04/03 11:40:06;;;;;;;0.50;0.50;;;;;;;;;;5092389;28;20482;-68
2023/04/03 11:42:38;;;;;;;1.20;0.57;;;;;;;;;;5103078;27;20431;-68
2023/04/03 11:45:26;;;;;;;0.40;0.40;;;;;;;;;;5096230;27;21099;-68
2023/04/03 11:48:01;;;;;;;0.45;0.45;;;;;;;;;;5088888;28;20502;-69
2023/04/03 11:50:42;;;;;;;0.77;0.47;;;;;;;;;;5096859;28;20760;-68
2023/04/03 11:53:12;;;;;;;0.60;0.35;;;;;;;;;;5091365;28;20424;-69
2023/04/03 11:55:52;;;;;;;0.57;0.57;;;;;;;;;;5102268;28;20430;-68
2023/04/03 11:58:24;;;;;;;0.35;0.35;;;;;;;;;;5099345;28;20428;-68
2023/04/03 12:00:52;;;;;;;0.50;0.50;;;;;;;;;;5097701;28;21028;-68
2023/04/03 12:03:29;;;;;;;0.30;0.30;;;;;;;;;;5095126;27;20499;-68
2023/04/03 12:06:06;;;;;;;1.00;0.30;;;;;;;;;;5090404;28;20440;-69
2023/04/03 12:08:33;;;;;;;0.22;0.22;;;;;;;;;;5100023;28;21021;-68
2023/04/03 12:11:09;;;;;;;0.50;0.40;;;;;;;;;;5096109;28;20446;-69
2023/04/03 12:13:52;;;;;;;1.52;0.77;;;;;;;;;;5092063;28;20429;-69
2023/04/03 12:16:23;;;;;;;0.90;0.73;;;;;;;;;;5099204;28;20466;-69
2023/04/03 12:18:53;;;;;;;0.30;0.30;;;;;;;;;;5097347;28;20428;-69
2023/04/03 12:21:22;;;;;;;0.47;0.47;;;;;;;;;;5096755;28;20441;-69
2023/04/03 12:24:10;;;;;;;0.50;0.50;;;;;;;;;;5089228;28;20431;-69
2023/04/03 12:26:56;;;;;;;0.70;0.70;;;;;;;;;;5095306;28;20505;-69
2023/04/03 12:29:32;;;;;;;0.60;0.60;;;;;;;;;;5097754;28;20430;-68
2023/04/03 12:32:31;;;;;;;0.20;0.20;;;;;;;;;;5087563;28;21162;-69
2023/04/03 12:34:58;;;;;;;0.30;0.30;;;;;;;;;;5055410;28;20445;-69
2023/04/03 12:37:35;;;;;;;0.20;0.20;;;;;;;;;;5052370;28;20423;-68
2023/04/03 12:40:24;;;;;;;0.22;0.22;;;;;;;;;;5054742;28;20436;-69
2023/04/03 12:42:57;;;;;;;0.30;0.30;;;;;;;;;;5057249;28;20520;-69
2023/04/03 12:45:25;;;;;;;0.35;0.35;;;;;;;;;;5057202;28;20457;-69
2023/04/03 12:47:54;;;;;;;0.40;0.40;;;;;;;;;;5053751;28;20515;-69
2023/04/03 12:50:33;;;;;;;1.30;0.70;;;;;;;;;;5056869;28;20660;-69
2023/04/03 12:53:05;;;;;;;0.30;0.30;;;;;;;;;;5056731;28;20925;-69
2023/04/03 12:55:32;;;;;;;0.43;0.43;;;;;;;;;;5057646;28;20437;-69
2023/04/03 12:58:22;;;;;;;0.30;0.30;;;;;;;;;;5056897;28;20477;-69
2023/04/03 13:01:01;;;;;;;0.55;0.35;;;;;;;;;;5062124;28;20423;-68
2023/04/03 13:03:29;;;;;;;0.68;0.63;;;;;;;;;;5056497;28;20431;-68
2023/04/03 13:05:59;;;;;;;0.50;0.50;;;;;;;;;;5055755;28;20949;-68
2023/04/03 13:08:30;;;;;;;3.80;0.87;;;;;;;;;;5051507;28;20428;-68
2023/04/03 13:11:11;;;;;;;0.70;0.50;;;;;;;;;;5079170;28;20428;-68
2023/04/03 13:13:39;;;;;;;0.95;0.90;;;;;;;;;;5097709;27;21415;-68
2023/04/03 13:16:10;;;;;;;0.40;0.40;;;;;;;;;;5096597;27;20462;-68
2023/04/03 13:18:38;;;;;;;1.10;0.63;;;;;;;;;;5090150;27;20440;-68
2023/04/03 13:21:07;;;;;;;0.40;0.40;;;;;;;;;;5096223;27;20466;-69
2023/04/03 13:23:37;;;;;;;0.40;0.40;;;;;;;;;;5094729;27;20527;-69
2023/04/03 13:26:04;;;;;;;0.60;0.60;;;;;;;;;;5095766;27;20420;-69
2023/04/03 13:28:32;;;;;;;0.73;0.35;;;;;;;;;;5091892;27;20434;-69
2023/04/03 13:31:02;;;;;;;0.30;0.30;;;;;;;;;;5091350;28;20421;-68
2023/04/03 13:33:32;;;;;;;0.90;0.57;;;;;;;;;;5093760;27;20910;-68
2023/04/03 13:36:04;;;;;;;1.10;0.50;;;;;;;;;;5090705;28;20428;-69
2023/04/03 13:38:36;;;;;;;1.20;0.50;;;;;;;;;;5089765;27;20434;-68
2023/04/03 13:41:23;;;;;;;0.55;0.55;;;;;;;;;;5095341;28;20439;-68
2023/04/03 13:43:53;;;;;;;0.60;0.40;;;;;;;;;;5098839;28;20433;-68
2023/04/03 13:46:32;;;;;;;0.30;0.30;;;;;;;;;;5094716;28;20440;-68
2023/04/03 13:49:17;;;;;;;0.52;0.45;;;;;;;;;;5093109;27;20424;-68
2023/04/03 13:51:44;;;;;;;0.28;0.28;;;;;;;;;;5093188;28;20422;-68
2023/04/03 13:54:23;;;;;;;0.60;0.60;;;;;;;;;;5089004;27;20447;-67
2023/04/03 13:56:56;;;;;;;0.52;0.52;;;;;;;;;;5088181;27;20508;-68
2023/04/03 13:59:25;;;;;;;3.20;0.50;;;;;;;;;;5092728;27;20466;-68
2023/04/03 14:02:01;;;;;;;3.00;0.90;;;;;;;;;;5096102;28;20509;-68
2023/04/03 14:04:33;;;;;;;0.88;0.85;;;;;;;;;;5093045;27;20426;-68
2023/04/03 14:07:00;;;;;;;0.30;0.30;;;;;;;;;;5092388;28;21169;-68
2023/04/03 14:09:31;;;;;;;0.30;0.30;;;;;;;;;;5096271;27;20438;-68
2023/04/03 14:12:01;;;;;;;1.50;0.47;;;;;;;;;;5100485;27;20477;-68
2023/04/03 14:14:30;;;;;;;0.45;0.45;;;;;;;;;;5091521;28;20434;-68
2023/04/03 14:17:01;;;;;;;0.40;0.40;;;;;;;;;;5091410;27;20640;-68
2023/04/03 14:19:51;;;;;;;0.30;0.30;;;;;;;;;;5101489;27;20439;-68
2023/04/03 14:22:26;;;;;;;0.70;0.40;;;;;;;;;;5111200;27;20435;-68
2023/04/03 14:24:53;;;;;;;0.70;0.50;;;;;;;;;;5086667;27;20432;-68
2023/04/03 14:27:22;;;;;;;0.65;0.52;;;;;;;;;;5083097;28;20784;-68
2023/04/03 14:29:50;;;;;;;0.55;0.55;;;;;;;;;;5085105;28;20422;-71
2023/04/03 14:32:18;;;;;;;0.60;0.60;;;;;;;;;;5086459;28;20424;-69
2023/04/03 14:34:46;;;;;;;0.47;0.40;;;;;;;;;;5088639;27;20486;-68
2023/04/03 14:37:14;;;;;;;0.50;0.50;;;;;;;;;;5094236;27;20425;-69
2023/04/03 14:39:42;;;;;;;0.43;0.43;;;;;;;;;;5087912;27;20437;-69
2023/04/03 14:42:15;;;;;;;0.50;0.50;;;;;;;;;;5094757;28;20553;-69
2023/04/03 14:44:42;;;;;;;0.60;0.60;;;;;;;;;;5094406;28;20425;-69
2023/04/03 14:47:10;;;;;;;0.50;0.50;;;;;;;;;;5095844;27;20435;-69
2023/04/03 14:49:46;;;;;;;3.30;0.60;;;;;;;;;;5088140;27;20800;-69
2023/04/03 14:52:20;;;;;;;1.50;0.60;;;;;;;;;;5091540;28;20429;-69
2023/04/03 14:54:48;;;;;;;0.93;0.47;;;;;;;;;;5097471;28;20434;-68
2023/04/03 14:57:17;;;;;;;0.60;0.60;;;;;;;;;;5091246;28;20432;-68
2023/04/03 14:59:45;;;;;;;0.50;0.50;;;;;;;;;;5091808;27;20460;-68
2023/04/03 15:02:25;;;;;;;2.90;0.63;;;;;;;;;;5088717;27;20437;-68